Time;durP1;ratioP1;P1;durP2;ratioP2;P2;SDS_P1;SDS_P2;PMS_P1;PMS_P2;Temp;Humidity;BMP_temperature;BMP_pressure;BME280_temperature;BME280_humidity;BME280_pressure;Samples;Min_cycle;Max_cycle;Signal;HPM_P1;HPM_P2
2022/07/14 00:02:16;;;;;;;;;;;21.60;74.40;;;;;;5061666;28;19912;-74
2022/07/14 00:04:41;;;;;;;;;;;21.50;74.40;;;;;;5048294;28;20495;-74
2022/07/14 00:07:07;;;;;;;;;;;21.50;74.50;;;;;;5062838;28;19916;-74
2022/07/14 00:09:32;;;;;;;;;;;21.50;74.70;;;;;;5063323;28;19909;-74
2022/07/14 00:11:58;;;;;;;;;;;21.50;74.80;;;;;;5055380;28;20421;-74
2022/07/14 00:14:23;;;;;;;;;;;21.40;74.80;;;;;;5043172;28;19937;-74
2022/07/14 00:16:49;;;;;;;;;;;21.40;74.90;;;;;;5062796;28;19912;-74
2022/07/14 00:19:14;;;;;;;;;;;21.40;74.80;;;;;;5062965;28;19924;-73
2022/07/14 00:21:40;;;;;;;;;;;21.40;74.80;;;;;;5061551;28;19966;-74
2022/07/14 00:24:09;;;;;;;;;;;21.30;74.80;;;;;;5062762;28;20503;-73
2022/07/14 00:26:35;;;;;;;;;;;21.40;75.00;;;;;;5062325;28;20001;-73
2022/07/14 00:29:00;;;;;;;;;;;21.30;75.00;;;;;;5062788;28;19920;-74
2022/07/14 00:31:26;;;;;;;;;;;21.30;75.10;;;;;;5062752;28;19912;-73
2022/07/14 00:33:51;;;;;;;;;;;21.30;75.30;;;;;;5062490;28;20370;-74
2022/07/14 00:36:17;;;;;;;;;;;21.20;75.30;;;;;;5050722;28;20362;-74
2022/07/14 00:38:42;;;;;;;;;;;21.30;75.40;;;;;;5050276;28;19919;-73
2022/07/14 00:41:08;;;;;;;;;;;21.20;75.50;;;;;;5043121;28;20646;-74
2022/07/14 00:43:34;;;;;;;;;;;21.10;75.40;;;;;;5044305;28;19913;-74
2022/07/14 00:45:59;;;;;;;;;;;21.10;75.50;;;;;;5053334;28;19921;-74
2022/07/14 00:48:27;;;;;;;;;;;21.20;75.70;;;;;;5061706;28;20340;-74
2022/07/14 00:50:53;;;;;;;;;;;21.10;75.50;;;;;;5061194;28;19913;-74
2022/07/14 00:53:19;;;;;;;;;;;21.10;75.60;;;;;;5062617;28;19966;-74
2022/07/14 00:55:44;;;;;;;;;;;21.00;75.70;;;;;;5060002;28;20317;-73
2022/07/14 00:58:10;;;;;;;;;;;21.00;75.80;;;;;;5055553;28;19912;-73
2022/07/14 01:00:36;;;;;;;;;;;21.00;75.90;;;;;;5045921;28;20016;-74
2022/07/14 01:03:01;;;;;;;;;;;20.90;75.90;;;;;;5057428;28;19917;-73
2022/07/14 01:05:27;;;;;;;;;;;20.90;76.00;;;;;;5057285;28;20397;-73
2022/07/14 01:07:54;;;;;;;;;;;20.90;76.00;;;;;;5043198;28;20596;-74
2022/07/14 01:10:19;;;;;;;;;;;20.90;75.70;;;;;;5044223;28;19917;-73
2022/07/14 01:12:46;;;;;;;;;;;20.90;76.00;;;;;;5042736;28;19938;-74
2022/07/14 01:15:13;;;;;;;;;;;20.80;76.00;;;;;;5055954;28;20292;-74
2022/07/14 01:17:38;;;;;;;;;;;20.80;76.10;;;;;;5061886;28;20623;-73
2022/07/14 01:20:04;;;;;;;;;;;20.80;76.10;;;;;;5062464;28;19955;-74
2022/07/14 01:22:30;;;;;;;;;;;20.80;76.10;;;;;;5060731;28;19909;-73
2022/07/14 01:24:55;;;;;;;;;;;20.80;76.20;;;;;;5061600;28;19920;-73
2022/07/14 01:27:21;;;;;;;;;;;20.70;76.10;;;;;;5061784;28;19950;-74
2022/07/14 01:29:46;;;;;;;;;;;20.70;76.20;;;;;;5061960;28;20023;-74
2022/07/14 01:32:12;;;;;;;;;;;20.70;76.30;;;;;;5057667;28;19913;-74
2022/07/14 01:34:37;;;;;;;;;;;20.70;76.40;;;;;;5043985;28;19916;-73
2022/07/14 01:37:03;;;;;;;;;;;20.60;76.30;;;;;;5060965;28;19917;-74
2022/07/14 01:39:28;;;;;;;;;;;20.60;76.40;;;;;;5049285;28;20000;-73
2022/07/14 01:41:54;;;;;;;;;;;20.60;76.50;;;;;;5043431;28;19974;-74
2022/07/14 01:44:20;;;;;;;;;;;20.60;76.60;;;;;;5056871;28;20478;-73
2022/07/14 01:46:45;;;;;;;;;;;20.60;76.60;;;;;;5061551;28;19982;-73
2022/07/14 01:49:12;;;;;;;;;;;20.60;76.60;;;;;;5064009;28;20419;-74
2022/07/14 01:51:37;;;;;;;;;;;20.50;76.60;;;;;;5065315;28;19912;-73
2022/07/14 01:54:06;;;;;;;;;;;20.50;76.60;;;;;;5065494;28;19924;-73
2022/07/14 01:56:32;;;;;;;;;;;20.50;76.70;;;;;;5064404;28;19965;-73
2022/07/14 01:59:00;;;;;;;;;;;20.50;76.80;;;;;;5064663;28;19912;-73
2022/07/14 02:01:40;;;;;;;;;;;20.50;76.80;;;;;;5064995;28;19979;-73
2022/07/14 02:04:11;;;;;;;;;;;20.40;76.70;;;;;;5065334;28;19926;-73
2022/07/14 02:06:45;;;;;;;;;;;20.40;76.80;;;;;;5050469;28;20350;-73
2022/07/14 02:09:11;;;;;;;;;;;20.40;76.90;;;;;;5051643;28;19924;-73
2022/07/14 02:14:21;;;;;;;;;;;20.30;77.00;;;;;;5052170;28;20038;-73
2022/07/14 02:16:47;;;;;;;;;;;20.30;77.00;;;;;;5064515;28;20010;-73
2022/07/14 02:19:12;;;;;;;;;;;20.30;77.00;;;;;;5065384;28;19913;-73
2022/07/14 02:21:39;;;;;;;;;;;20.30;77.10;;;;;;5065339;28;20470;-73
2022/07/14 02:24:05;;;;;;;;;;;20.30;77.20;;;;;;5065186;28;20380;-73
2022/07/14 02:26:31;;;;;;;;;;;20.30;77.20;;;;;;5064756;28;20566;-73
2022/07/14 02:28:56;;;;;;;;;;;20.20;77.20;;;;;;5063381;28;19924;-73
2022/07/14 02:31:22;;;;;;;;;;;20.20;77.20;;;;;;5063608;28;19944;-73
2022/07/14 02:33:47;;;;;;;;;;;20.20;77.30;;;;;;5064759;28;20584;-73
2022/07/14 02:36:13;;;;;;;;;;;20.20;77.30;;;;;;5064745;28;19919;-73
2022/07/14 02:38:38;;;;;;;;;;;20.20;77.40;;;;;;5061336;28;19955;-73
2022/07/14 02:41:07;;;;;;;;;;;20.20;77.40;;;;;;5046052;28;19913;-73
2022/07/14 02:43:33;;;;;;;;;;;20.10;77.30;;;;;;5046326;28;19912;-73
2022/07/14 02:45:59;;;;;;;;;;;20.10;77.50;;;;;;5064184;28;20301;-73
2022/07/14 02:48:24;;;;;;;;;;;20.10;77.50;;;;;;5045874;28;20281;-72
2022/07/14 02:50:50;;;;;;;;;;;20.10;77.50;;;;;;5062702;28;19959;-73
2022/07/14 02:53:15;;;;;;;;;;;20.10;77.50;;;;;;5064886;28;19978;-73
2022/07/14 02:55:41;;;;;;;;;;;20.10;77.60;;;;;;5064174;28;19912;-73
2022/07/14 02:58:06;;;;;;;;;;;20.10;77.60;;;;;;5060680;28;19912;-73
2022/07/14 03:00:32;;;;;;;;;;;20.10;77.70;;;;;;5045951;28;19909;-73
2022/07/14 03:03:00;;;;;;;;;;;20.00;77.60;;;;;;5046378;28;19912;-72
2022/07/14 03:05:25;;;;;;;;;;;20.00;77.60;;;;;;5051586;28;19916;-73
2022/07/14 03:07:51;;;;;;;;;;;20.00;77.60;;;;;;5064198;28;19920;-73
2022/07/14 03:10:16;;;;;;;;;;;20.00;77.70;;;;;;5064389;28;19951;-73
2022/07/14 03:12:42;;;;;;;;;;;20.00;77.70;;;;;;5064028;28;19985;-73
2022/07/14 03:15:07;;;;;;;;;;;20.00;77.70;;;;;;5064261;28;19958;-73
2022/07/14 03:17:33;;;;;;;;;;;20.00;77.80;;;;;;5063831;28;20020;-73
2022/07/14 03:19:58;;;;;;;;;;;19.90;78.40;;;;;;5054234;28;20017;-73
2022/07/14 03:22:24;;;;;;;;;;;19.90;77.90;;;;;;5045947;28;19913;-73
2022/07/14 03:24:50;;;;;;;;;;;19.90;77.90;;;;;;5044193;28;19919;-73
2022/07/14 03:27:15;;;;;;;;;;;19.90;77.90;;;;;;5044854;28;20003;-72
2022/07/14 03:29:41;;;;;;;;;;;19.90;77.90;;;;;;5044026;28;19912;-73
2022/07/14 03:32:07;;;;;;;;;;;19.90;78.00;;;;;;5045621;28;19916;-73
2022/07/14 03:34:32;;;;;;;;;;;19.90;78.00;;;;;;5045538;28;19913;-73
2022/07/14 03:36:58;;;;;;;;;;;19.80;78.00;;;;;;5062092;28;19923;-73
2022/07/14 03:39:23;;;;;;;;;;;19.80;78.00;;;;;;5061994;28;19940;-73
2022/07/14 03:41:49;;;;;;;;;;;19.80;78.10;;;;;;5062402;28;19977;-73
2022/07/14 03:44:14;;;;;;;;;;;19.80;78.10;;;;;;5057648;28;19948;-73
2022/07/14 03:46:40;;;;;;;;;;;19.80;78.10;;;;;;5043576;28;19920;-73
2022/07/14 03:49:05;;;;;;;;;;;19.80;78.10;;;;;;5048335;28;19959;-73
2022/07/14 03:51:31;;;;;;;;;;;19.80;78.20;;;;;;5063297;28;19908;-73
2022/07/14 03:53:57;;;;;;;;;;;19.80;78.30;;;;;;5063128;28;19913;-72
2022/07/14 03:56:23;;;;;;;;;;;19.80;78.30;;;;;;5061179;28;20305;-73
2022/07/14 03:58:48;;;;;;;;;;;19.70;78.30;;;;;;5063302;28;19956;-73
2022/07/14 04:01:14;;;;;;;;;;;19.70;78.30;;;;;;5062262;28;19999;-73
2022/07/14 04:03:39;;;;;;;;;;;19.70;78.30;;;;;;5063692;28;20030;-73
2022/07/14 04:06:05;;;;;;;;;;;19.70;78.30;;;;;;5063180;28;19912;-73
2022/07/14 04:08:30;;;;;;;;;;;19.70;78.40;;;;;;5061284;28;19917;-73
2022/07/14 04:10:56;;;;;;;;;;;19.70;78.40;;;;;;5047728;28;20377;-73
2022/07/14 04:13:22;;;;;;;;;;;19.60;78.40;;;;;;5045116;28;20381;-73
2022/07/14 04:15:47;;;;;;;;;;;19.60;78.40;;;;;;5045474;28;19952;-73
2022/07/14 04:18:13;;;;;;;;;;;19.60;78.40;;;;;;5044651;28;19947;-73
2022/07/14 04:20:38;;;;;;;;;;;19.60;78.50;;;;;;5043934;28;20310;-72
2022/07/14 04:23:04;;;;;;;;;;;19.60;78.50;;;;;;5044867;28;19913;-72
2022/07/14 04:25:30;;;;;;;;;;;19.60;78.40;;;;;;5044517;28;19913;-73
2022/07/14 04:27:55;;;;;;;;;;;19.60;78.40;;;;;;5043875;28;20545;-73
2022/07/14 04:30:21;;;;;;;;;;;19.60;78.50;;;;;;5044481;28;19923;-73
2022/07/14 04:32:47;;;;;;;;;;;19.60;78.50;;;;;;5044795;28;19944;-73
2022/07/14 04:35:12;;;;;;;;;;;19.60;78.50;;;;;;5048421;28;19913;-73
2022/07/14 04:37:38;;;;;;;;;;;19.60;78.50;;;;;;5044209;28;20024;-73
2022/07/14 04:40:04;;;;;;;;;;;19.60;78.50;;;;;;5044574;28;19924;-73
2022/07/14 04:42:30;;;;;;;;;;;19.60;78.50;;;;;;5042888;28;19913;-73
2022/07/14 04:44:56;;;;;;;;;;;19.60;78.60;;;;;;5054505;28;20036;-73
2022/07/14 04:47:21;;;;;;;;;;;19.50;78.60;;;;;;5061085;28;19924;-73
2022/07/14 04:52:31;;;;;;;;;;;19.50;79.40;;;;;;5062987;28;19919;-73
2022/07/14 04:54:56;;;;;;;;;;;19.50;78.70;;;;;;5061347;28;19912;-73
2022/07/14 04:57:22;;;;;;;;;;;19.50;78.70;;;;;;5049933;28;20485;-73
2022/07/14 04:59:47;;;;;;;;;;;19.50;78.70;;;;;;5042917;28;19913;-73
2022/07/14 05:02:13;;;;;;;;;;;19.50;78.70;;;;;;5044471;28;20606;-73
2022/07/14 05:04:38;;;;;;;;;;;19.50;78.70;;;;;;5062410;28;19924;-73
2022/07/14 05:07:04;;;;;;;;;;;19.50;78.80;;;;;;5049754;28;19932;-73
2022/07/14 05:09:33;;;;;;;;;;;19.50;78.70;;;;;;5044218;28;20016;-73
2022/07/14 05:11:59;;;;;;;;;;;19.50;78.70;;;;;;5042920;28;20427;-73
2022/07/14 05:14:25;;;;;;;;;;;19.50;78.70;;;;;;5045691;28;19909;-73
2022/07/14 05:16:50;;;;;;;;;;;19.50;78.80;;;;;;5042662;28;19958;-73
2022/07/14 05:19:16;;;;;;;;;;;19.40;78.70;;;;;;5047655;28;19920;-73
2022/07/14 05:21:42;;;;;;;;;;;19.40;78.80;;;;;;5061199;28;20410;-73
2022/07/14 05:24:08;;;;;;;;;;;19.40;78.80;;;;;;5064933;28;19939;-72
2022/07/14 05:26:34;;;;;;;;;;;19.40;78.80;;;;;;5066124;28;19959;-73
2022/07/14 05:29:00;;;;;;;;;;;19.40;78.80;;;;;;5066406;28;19946;-72
2022/07/14 05:31:25;;;;;;;;;;;19.40;78.90;;;;;;5064677;28;19938;-73
2022/07/14 05:33:51;;;;;;;;;;;19.40;78.90;;;;;;5066390;28;19908;-73
2022/07/14 05:36:17;;;;;;;;;;;19.40;78.90;;;;;;5066505;28;19912;-73
2022/07/14 05:38:43;;;;;;;;;;;19.40;78.90;;;;;;5062292;28;20270;-73
2022/07/14 05:41:08;;;;;;;;;;;19.40;79.00;;;;;;5047588;28;19917;-73
2022/07/14 05:43:34;;;;;;;;;;;19.30;78.90;;;;;;5046064;28;20062;-73
2022/07/14 05:46:09;;;;;;;;;;;19.30;78.90;;;;;;5065403;28;19973;-73
2022/07/14 05:48:37;;;;;;;;;;;19.30;79.00;;;;;;5065860;28;19967;-72
2022/07/14 05:51:22;;;;;;;;;;;19.30;79.00;;;;;;5047806;28;19912;-73
2022/07/14 05:53:48;;;;;;;;;;;19.30;78.90;;;;;;5064121;28;19909;-73
2022/07/14 05:56:16;;;;;;;;;;;19.30;78.80;;;;;;5065856;28;19912;-73
2022/07/14 05:58:42;;;;;;;;;;;19.30;78.80;;;;;;5064816;28;19927;-73
2022/07/14 06:01:07;;;;;;;;;;;19.30;78.80;;;;;;5066030;28;19908;-73
2022/07/14 06:03:33;;;;;;;;;;;19.30;78.90;;;;;;5063358;28;20464;-73
2022/07/14 06:06:00;;;;;;;;;;;19.40;78.80;;;;;;5065822;28;19923;-73
2022/07/14 06:08:25;;;;;;;;;;;19.30;78.70;;;;;;5065184;28;20686;-73
2022/07/14 06:10:51;;;;;;;;;;;19.40;78.80;;;;;;5065401;28;19923;-73
2022/07/14 06:13:17;;;;;;;;;;;19.40;78.90;;;;;;5059277;28;20277;-73
2022/07/14 06:15:44;;;;;;;;;;;19.40;78.70;;;;;;5046982;28;19913;-73
2022/07/14 06:18:10;;;;;;;;;;;19.40;78.60;;;;;;5045144;28;19920;-72
2022/07/14 06:20:36;;;;;;;;;;;19.40;78.40;;;;;;5061738;28;20014;-73
2022/07/14 06:23:02;;;;;;;;;;;19.40;78.40;;;;;;5065510;28;19987;-73
2022/07/14 06:25:27;;;;;;;;;;;19.40;78.90;;;;;;5063903;28;20278;-72
2022/07/14 06:27:53;;;;;;;;;;;19.40;78.30;;;;;;5063261;28;19923;-72
2022/07/14 06:30:18;;;;;;;;;;;19.50;78.30;;;;;;5065066;28;20242;-73
2022/07/14 06:32:44;;;;;;;;;;;19.50;78.10;;;;;;5065051;28;19951;-73
2022/07/14 06:35:10;;;;;;;;;;;19.50;77.90;;;;;;5064704;28;19919;-73
2022/07/14 06:37:36;;;;;;;;;;;19.50;77.80;;;;;;5064786;28;19913;-73
2022/07/14 06:40:04;;;;;;;;;;;19.50;77.70;;;;;;5048730;28;19913;-72
2022/07/14 06:42:30;;;;;;;;;;;19.50;77.80;;;;;;5046568;28;19921;-72
2022/07/14 06:44:56;;;;;;;;;;;19.50;77.90;;;;;;5047402;28;19916;-73
2022/07/14 06:47:21;;;;;;;;;;;19.50;77.70;;;;;;5055053;28;19924;-73
2022/07/14 06:49:47;;;;;;;;;;;19.60;78.10;;;;;;5058704;28;20226;-73
2022/07/14 06:52:12;;;;;;;;;;;19.60;77.70;;;;;;5046493;28;19944;-73
2022/07/14 06:54:38;;;;;;;;;;;19.60;77.50;;;;;;5045837;28;19935;-73
2022/07/14 06:57:03;;;;;;;;;;;19.60;77.50;;;;;;5056873;28;20012;-73
2022/07/14 06:59:29;;;;;;;;;;;19.60;77.50;;;;;;5045187;28;19959;-73
2022/07/14 07:01:55;;;;;;;;;;;19.60;77.50;;;;;;5045755;28;20768;-72
2022/07/14 07:04:20;;;;;;;;;;;19.60;77.30;;;;;;5044756;28;19913;-73
2022/07/14 07:06:46;;;;;;;;;;;19.60;77.40;;;;;;5046033;28;20342;-73
2022/07/14 07:09:12;;;;;;;;;;;19.70;77.40;;;;;;5045880;28;20561;-73
2022/07/14 07:11:38;;;;;;;;;;;19.70;77.40;;;;;;5045954;28;19909;-73
2022/07/14 07:14:03;;;;;;;;;;;19.70;77.30;;;;;;5045625;28;20011;-73
2022/07/14 07:16:29;;;;;;;;;;;19.70;77.30;;;;;;5047174;28;19920;-73
2022/07/14 07:18:54;;;;;;;;;;;19.70;77.20;;;;;;5064394;28;19912;-73
2022/07/14 07:21:20;;;;;;;;;;;19.80;77.30;;;;;;5063944;28;20636;-73
2022/07/14 07:23:47;;;;;;;;;;;19.80;77.20;;;;;;5064487;28;19920;-73
2022/07/14 07:26:13;;;;;;;;;;;19.80;77.20;;;;;;5062789;28;19965;-73
2022/07/14 07:28:39;;;;;;;;;;;19.80;77.00;;;;;;5064171;28;19994;-73
2022/07/14 07:31:04;;;;;;;;;;;19.90;77.10;;;;;;5064459;28;19912;-73
2022/07/14 07:33:30;;;;;;;;;;;19.90;76.90;;;;;;5064329;28;19919;-73
2022/07/14 07:35:55;;;;;;;;;;;19.90;76.90;;;;;;5063950;28;19916;-73
2022/07/14 07:38:21;;;;;;;;;;;19.90;77.10;;;;;;5062123;28;19975;-72
2022/07/14 07:40:49;;;;;;;;;;;19.90;77.70;;;;;;5063823;28;20003;-73
2022/07/14 07:43:15;;;;;;;;;;;19.90;76.90;;;;;;5063772;28;20369;-73
2022/07/14 07:45:40;;;;;;;;;;;19.90;76.90;;;;;;5062825;28;19966;-73
2022/07/14 07:48:06;;;;;;;;;;;19.90;76.90;;;;;;5044850;28;19922;-73
2022/07/14 07:50:32;;;;;;;;;;;19.90;76.90;;;;;;5047006;28;20501;-73
2022/07/14 07:52:58;;;;;;;;;;;19.90;76.90;;;;;;5045603;28;19919;-73
2022/07/14 07:55:23;;;;;;;;;;;19.90;76.80;;;;;;5045498;28;19917;-73
2022/07/14 07:57:49;;;;;;;;;;;19.90;76.80;;;;;;5044496;28;20020;-73
2022/07/14 08:00:15;;;;;;;;;;;19.90;76.70;;;;;;5045289;28;19950;-73
2022/07/14 08:02:44;;;;;;;;;;;19.90;76.60;;;;;;5043641;28;19913;-73
2022/07/14 08:05:10;;;;;;;;;;;20.00;76.60;;;;;;5048391;28;20432;-73
2022/07/14 08:07:37;;;;;;;;;;;20.00;76.50;;;;;;5063127;28;19916;-73
2022/07/14 08:10:02;;;;;;;;;;;20.00;76.50;;;;;;5061883;28;19929;-73
2022/07/14 08:12:28;;;;;;;;;;;20.00;76.50;;;;;;5063203;28;20003;-73
2022/07/14 08:14:54;;;;;;;;;;;20.10;76.40;;;;;;5060959;28;19913;-73
2022/07/14 08:17:20;;;;;;;;;;;20.10;76.30;;;;;;5043261;28;20286;-73
2022/07/14 08:19:46;;;;;;;;;;;20.10;76.00;;;;;;5049727;28;19913;-73
2022/07/14 08:22:12;;;;;;;;;;;20.10;76.00;;;;;;5044649;28;20504;-73
2022/07/14 08:24:37;;;;;;;;;;;20.10;76.00;;;;;;5044424;28;19936;-73
2022/07/14 08:27:03;;;;;;;;;;;20.10;75.80;;;;;;5043114;28;20318;-73
2022/07/14 08:29:29;;;;;;;;;;;20.20;75.70;;;;;;5044576;28;19928;-73
2022/07/14 08:31:54;;;;;;;;;;;20.20;75.70;;;;;;5044863;28;19912;-73
2022/07/14 08:34:20;;;;;;;;;;;20.20;75.50;;;;;;5045187;28;19913;-73
2022/07/14 08:36:45;;;;;;;;;;;20.20;75.30;;;;;;5044693;28;19919;-73
2022/07/14 08:39:11;;;;;;;;;;;20.20;75.40;;;;;;5050334;28;19935;-73
2022/07/14 08:41:38;;;;;;;;;;;20.20;75.40;;;;;;5045020;28;20397;-73
2022/07/14 08:44:04;;;;;;;;;;;20.20;75.40;;;;;;5043315;28;19932;-73
2022/07/14 08:46:30;;;;;;;;;;;20.30;75.20;;;;;;5061285;28;19927;-73
2022/07/14 08:48:56;;;;;;;;;;;20.30;75.00;;;;;;5062905;28;19916;-73
2022/07/14 08:51:22;;;;;;;;;;;20.30;74.90;;;;;;5063127;28;19913;-73
2022/07/14 08:53:47;;;;;;;;;;;20.40;74.90;;;;;;5062736;28;20382;-73
2022/07/14 08:56:13;;;;;;;;;;;20.40;74.80;;;;;;5062858;28;19909;-73
2022/07/14 08:58:40;;;;;;;;;;;20.40;74.70;;;;;;5047684;28;19917;-73
2022/07/14 09:01:05;;;;;;;;;;;20.50;74.60;;;;;;5063634;28;20679;-73
2022/07/14 09:03:31;;;;;;;;;;;20.50;74.30;;;;;;5048709;28;19913;-73
2022/07/14 09:05:57;;;;;;;;;;;20.50;74.20;;;;;;5057076;28;19923;-73
2022/07/14 09:08:23;;;;;;;;;;;20.50;74.30;;;;;;5055707;28;19973;-73
2022/07/14 09:10:48;;;;;;;;;;;20.50;74.20;;;;;;5064725;28;19920;-73
2022/07/14 09:13:15;;;;;;;;;;;20.60;74.00;;;;;;5066417;28;20583;-73
2022/07/14 09:15:46;;;;;;;;;;;20.60;73.90;;;;;;5061881;28;19913;-73
2022/07/14 09:18:32;;;;;;;;;;;20.60;73.70;;;;;;5045635;28;19939;-73
2022/07/14 09:20:58;;;;;;;;;;;20.60;73.60;;;;;;5064405;28;20417;-73
2022/07/14 09:23:27;;;;;;;;;;;20.70;73.40;;;;;;5064482;28;19912;-73
2022/07/14 09:26:07;;;;;;;;;;;20.60;73.40;;;;;;5065796;28;19908;-73
2022/07/14 09:28:37;;;;;;;;;;;20.70;73.20;;;;;;5065226;28;20373;-73
2022/07/14 09:31:32;;;;;;;;;;;20.80;72.90;;;;;;5065864;28;19916;-73
2022/07/14 09:33:59;;;;;;;;;;;20.80;72.80;;;;;;5060757;28;19913;-73
2022/07/14 09:36:26;;;;;;;;;;;20.80;72.30;;;;;;5065785;28;19913;-72
2022/07/14 09:38:52;;;;;;;;;;;20.80;72.50;;;;;;5058980;28;19912;-73
2022/07/14 09:41:18;;;;;;;;;;;20.80;72.20;;;;;;5047373;28;19931;-73
2022/07/14 09:44:04;;;;;;;;;;;20.80;71.90;;;;;;5046201;28;19913;-73
2022/07/14 09:46:43;;;;;;;;;;;20.90;71.80;;;;;;5047377;28;19931;-73
2022/07/14 09:49:08;;;;;;;;;;;21.00;72.00;;;;;;5050621;28;19928;-73
2022/07/14 09:51:34;;;;;;;;;;;21.00;71.80;;;;;;5065515;28;19913;-73
2022/07/14 09:54:00;;;;;;;;;;;21.00;71.80;;;;;;5064237;28;19920;-73
2022/07/14 09:56:28;;;;;;;;;;;21.10;71.50;;;;;;5063872;28;19913;-73
2022/07/14 09:58:56;;;;;;;;;;;21.10;71.30;;;;;;5064371;28;19920;-73
2022/07/14 10:01:23;;;;;;;;;;;21.20;71.10;;;;;;5064263;28;20424;-73
2022/07/14 10:03:51;;;;;;;;;;;21.20;71.00;;;;;;5065561;28;20011;-73
2022/07/14 10:06:17;;;;;;;;;;;21.20;70.90;;;;;;5065347;28;20361;-73
2022/07/14 10:08:43;;;;;;;;;;;21.20;70.80;;;;;;5064484;28;19924;-73
2022/07/14 10:11:10;;;;;;;;;;;21.20;70.90;;;;;;5064918;28;19924;-73
2022/07/14 10:13:36;;;;;;;;;;;21.20;70.70;;;;;;5063745;28;19923;-73
2022/07/14 10:16:02;;;;;;;;;;;21.20;69.90;;;;;;5066125;28;19919;-73
2022/07/14 10:18:28;;;;;;;;;;;21.30;70.40;;;;;;5064352;28;19908;-73
2022/07/14 10:20:55;;;;;;;;;;;21.40;69.70;;;;;;5055553;28;19913;-73
2022/07/14 10:23:21;;;;;;;;;;;21.50;69.80;;;;;;5047134;28;19913;-73
2022/07/14 10:25:48;;;;;;;;;;;21.50;69.70;;;;;;5046731;28;20074;-73
2022/07/14 10:28:14;;;;;;;;;;;21.50;69.90;;;;;;5046368;28;19913;-73
2022/07/14 10:30:53;;;;;;;;;;;21.50;69.00;;;;;;5046825;28;19961;-73
2022/07/14 10:33:28;;;;;;;;;;;21.60;69.50;;;;;;5047290;28;19909;-73
2022/07/14 10:35:56;;;;;;;;;;;21.70;69.10;;;;;;5056203;28;19958;-73
2022/07/14 10:38:34;;;;;;;;;;;21.80;68.60;;;;;;5059616;28;20464;-73
2022/07/14 10:40:59;;;;;;;;;;;21.80;69.10;;;;;;5057681;28;20578;-73
2022/07/14 10:43:27;;;;;;;;;;;21.90;69.00;;;;;;5063285;28;19920;-73
2022/07/14 10:45:53;;;;;;;;;;;22.00;68.90;;;;;;5063253;28;19927;-73
2022/07/14 10:48:35;;;;;;;;;;;22.10;68.70;;;;;;5046361;28;19921;-73
2022/07/14 10:51:21;;;;;;;;;;;22.20;68.50;;;;;;5063745;28;19954;-73
2022/07/14 10:54:06;;;;;;;;;;;22.20;67.60;;;;;;5062893;28;20433;-73
2022/07/14 10:56:31;;;;;;;;;;;22.30;68.00;;;;;;5063420;28;20023;-73
2022/07/14 10:59:32;;;;;;;;;;;22.40;68.40;;;;;;5064175;28;19995;-73
2022/07/14 11:02:16;;;;;;;;;;;22.50;66.90;;;;;;5006376;28;19913;-73
2022/07/14 11:05:12;;;;;;;;;;;22.60;67.50;;;;;;5044996;28;19913;-73
2022/07/14 11:07:43;;;;;;;;;;;22.70;67.50;;;;;;5052119;28;19923;-73
2022/07/14 11:10:11;;;;;;;;;;;22.80;67.10;;;;;;5045671;28;20159;-73
2022/07/14 11:12:57;;;;;;;;;;;23.00;67.10;;;;;;5045727;28;20646;-73
2022/07/14 11:15:34;;;;;;;;;;;23.00;67.00;;;;;;5056976;28;19936;-73
2022/07/14 11:18:18;;;;;;;;;;;23.10;66.10;;;;;;5057489;28;20442;-73
2022/07/14 11:21:07;;;;;;;;;;;23.20;65.40;;;;;;5063799;28;19965;-72
2022/07/14 11:23:37;;;;;;;;;;;23.30;66.20;;;;;;5060064;28;19919;-73
2022/07/14 11:26:06;;;;;;;;;;;23.40;66.20;;;;;;5063823;28;19912;-72
2022/07/14 11:28:58;;;;;;;;;;;23.50;66.00;;;;;;5063340;28;19916;-73
2022/07/14 11:31:24;;;;;;;;;;;23.50;66.60;;;;;;5062451;28;20281;-73
2022/07/14 11:36:35;;;;;;;;;;;23.60;65.20;;;;;;5063635;28;19985;-73
2022/07/14 11:39:15;;;;;;;;;;;23.70;66.00;;;;;;5050674;28;20517;-73
2022/07/14 11:41:42;;;;;;;;;;;23.80;65.30;;;;;;5053921;28;19958;-73
2022/07/14 11:44:28;;;;;;;;;;;23.90;66.00;;;;;;5042873;28;19916;-73
2022/07/14 11:47:00;;;;;;;;;;;23.90;65.10;;;;;;5044770;28;19974;-73
2022/07/14 11:49:26;;;;;;;;;;;24.00;64.80;;;;;;5049846;28;19927;-73
2022/07/14 11:51:55;;;;;;;;;;;24.10;65.90;;;;;;5062600;28;19912;-72
2022/07/14 11:54:21;;;;;;;;;;;24.10;66.00;;;;;;5061662;28;19913;-73
2022/07/14 11:56:48;;;;;;;;;;;24.20;66.00;;;;;;5063379;28;19920;-73
2022/07/14 11:59:17;;;;;;;;;;;24.30;64.60;;;;;;5061848;28;20254;-73
2022/07/14 12:01:44;;;;;;;;;;;24.30;65.50;;;;;;5063510;28;19913;-73
2022/07/14 12:04:10;;;;;;;;;;;24.40;63.80;;;;;;5063026;28;19913;-73
2022/07/14 12:06:40;;;;;;;;;;;24.50;65.40;;;;;;5048109;28;20528;-73
2022/07/14 12:09:06;;;;;;;;;;;24.60;65.00;;;;;;5044066;28;20309;-73
2022/07/14 12:11:32;;;;;;;;;;;24.60;64.60;;;;;;5048865;28;19919;-73
2022/07/14 12:13:58;;;;;;;;;;;24.70;64.40;;;;;;5050524;28;19913;-73
2022/07/14 12:16:24;;;;;;;;;;;24.70;63.40;;;;;;5059121;28;19913;-73
2022/07/14 12:18:53;;;;;;;;;;;24.80;62.20;;;;;;5062499;28;19912;-74
2022/07/14 12:21:30;;;;;;;;;;;24.80;61.50;;;;;;5062957;28;20257;-74
2022/07/14 12:23:57;;;;;;;;;;;25.00;62.80;;;;;;5062847;28;19913;-73
2022/07/14 12:26:23;;;;;;;;;;;25.00;62.60;;;;;;5062182;28;19912;-73
2022/07/14 12:28:52;;;;;;;;;;;25.20;62.70;;;;;;5060175;28;19921;-74
2022/07/14 12:31:19;;;;;;;;;;;25.10;62.30;;;;;;5061889;28;19913;-73
2022/07/14 12:33:46;;;;;;;;;;;25.20;61.30;;;;;;5061056;28;20304;-73
2022/07/14 12:36:15;;;;;;;;;;;25.30;61.20;;;;;;5063275;28;20538;-73
2022/07/14 12:38:41;;;;;;;;;;;25.30;61.50;;;;;;5057478;28;20302;-74
2022/07/14 12:41:07;;;;;;;;;;;25.30;61.10;;;;;;5044084;28;20344;-73
2022/07/14 12:43:37;;;;;;;;;;;25.30;60.90;;;;;;5044354;28;19921;-74
2022/07/14 12:46:04;;;;;;;;;;;25.40;61.00;;;;;;5051016;28;19981;-73
2022/07/14 12:48:30;;;;;;;;;;;25.40;61.80;;;;;;5046511;28;19917;-74
2022/07/14 12:50:57;;;;;;;;;;;25.40;60.70;;;;;;5048919;28;19912;-74
2022/07/14 12:53:23;;;;;;;;;;;25.40;61.20;;;;;;5044537;28;19948;-74
2022/07/14 12:55:57;;;;;;;;;;;25.40;60.70;;;;;;5046644;28;20037;-74
2022/07/14 12:58:26;;;;;;;;;;;25.40;61.00;;;;;;5057459;28;19927;-74
2022/07/14 13:00:51;;;;;;;;;;;25.50;61.20;;;;;;5056837;28;19959;-74
2022/07/14 13:03:18;;;;;;;;;;;25.60;61.30;;;;;;5063077;28;20406;-73
2022/07/14 13:05:53;;;;;;;;;;;25.70;61.00;;;;;;5062625;28;20018;-74
2022/07/14 13:08:28;;;;;;;;;;;25.80;60.80;;;;;;5043758;28;19960;-73
2022/07/14 13:10:55;;;;;;;;;;;25.90;60.50;;;;;;5044165;28;19913;-73
2022/07/14 13:13:29;;;;;;;;;;;25.90;60.40;;;;;;5043935;28;19920;-73
2022/07/14 13:16:12;;;;;;;;;;;26.00;60.30;;;;;;5055288;28;19916;-73
2022/07/14 13:18:58;;;;;;;;;;;26.20;60.20;;;;;;5060840;28;19908;-73
2022/07/14 13:21:43;;;;;;;;;;;26.20;60.00;;;;;;5072047;28;20511;-73
2022/07/14 13:24:13;;;;;;;;;;;26.20;59.60;;;;;;5041930;28;19967;-73
2022/07/14 13:26:38;;;;;;;;;;;26.40;59.60;;;;;;5042072;28;20380;-73
2022/07/14 13:29:04;;;;;;;;;;;26.50;59.30;;;;;;5043774;28;19916;-74
2022/07/14 13:31:29;;;;;;;;;;;26.50;59.30;;;;;;5043994;28;20011;-74
2022/07/14 13:33:58;;;;;;;;;;;26.50;59.50;;;;;;5044163;28;19940;-73
2022/07/14 13:36:24;;;;;;;;;;;26.50;59.70;;;;;;5046506;28;20375;-73
2022/07/14 13:38:50;;;;;;;;;;;26.60;59.50;;;;;;5052773;28;20105;-74
2022/07/14 13:41:16;;;;;;;;;;;26.60;59.30;;;;;;5062185;28;19995;-74
2022/07/14 13:43:42;;;;;;;;;;;26.60;58.90;;;;;;5062034;28;20043;-74
2022/07/14 13:46:09;;;;;;;;;;;26.70;58.80;;;;;;5056359;28;20011;-74
2022/07/14 13:48:36;;;;;;;;;;;26.70;58.70;;;;;;5047605;28;19917;-74
2022/07/14 13:53:46;;;;;;;;;;;26.80;58.60;;;;;;5066043;28;19946;-74
2022/07/14 13:56:12;;;;;;;;;;;26.90;58.70;;;;;;5063939;28;19916;-74
2022/07/14 13:58:37;;;;;;;;;;;27.00;58.70;;;;;;5048129;28;19930;-74
2022/07/14 14:01:03;;;;;;;;;;;27.00;58.70;;;;;;5045851;28;20425;-73
2022/07/14 14:03:29;;;;;;;;;;;27.20;58.20;;;;;;5047446;28;19971;-74
2022/07/14 14:06:10;;;;;;;;;;;27.20;58.40;;;;;;5056214;28;20242;-74
2022/07/14 14:08:36;;;;;;;;;;;27.20;58.40;;;;;;5063441;28;19917;-73
2022/07/14 14:11:02;;;;;;;;;;;27.10;58.50;;;;;;5058991;28;20055;-74
2022/07/14 14:13:28;;;;;;;;;;;27.10;59.40;;;;;;5045933;28;20458;-74
2022/07/14 14:15:55;;;;;;;;;;;27.10;58.60;;;;;;5045112;28;20641;-74
2022/07/14 14:18:20;;;;;;;;;;;27.20;58.30;;;;;;5045297;28;20020;-73
2022/07/14 14:20:46;;;;;;;;;;;27.20;58.20;;;;;;5045356;28;19999;-73
2022/07/14 14:23:12;;;;;;;;;;;27.30;57.40;;;;;;5045630;28;19913;-73
2022/07/14 14:25:38;;;;;;;;;;;27.40;58.10;;;;;;5044344;28;19938;-73
2022/07/14 14:28:05;;;;;;;;;;;27.40;57.90;;;;;;5043944;28;19921;-74
2022/07/14 14:30:32;;;;;;;;;;;27.40;57.90;;;;;;5045875;28;20794;-73